createdAt,value
2018-06-11T00:01:28.258Z,23.40
2018-06-11T00:03:56.434Z,24.17
2018-06-11T00:06:24.614Z,22.20
2018-06-11T00:08:52.758Z,22.20
2018-06-11T00:11:20.923Z,23.17
2018-06-11T00:13:49.093Z,22.63
2018-06-11T00:16:17.402Z,22.10
2018-06-11T00:18:45.572Z,22.67
2018-06-11T00:21:13.774Z,23.10
2018-06-11T00:23:41.946Z,22.97
2018-06-11T00:26:10.113Z,23.77
2018-06-11T00:28:38.282Z,24.23
2018-06-11T00:31:06.438Z,22.47
2018-06-11T00:33:34.604Z,24.07
2018-06-11T00:36:02.803Z,25.47
2018-06-11T00:38:30.974Z,24.80
2018-06-11T00:40:59.146Z,24.57
2018-06-11T00:43:27.297Z,24.63
2018-06-11T00:45:56.304Z,24.10
2018-06-11T00:48:24.501Z,23.60
2018-06-11T00:50:52.672Z,22.67
2018-06-11T00:53:20.829Z,23.67
2018-06-11T00:56:00.386Z,23.00
2018-06-11T00:58:28.546Z,22.77
2018-06-11T01:00:56.702Z,22.30
2018-06-11T01:03:24.978Z,21.50
2018-06-11T01:05:53.182Z,21.53
2018-06-11T01:08:21.353Z,23.70
2018-06-11T01:10:49.537Z,22.23
2018-06-11T01:13:17.720Z,21.80
2018-06-11T01:15:45.881Z,23.63
2018-06-11T01:18:14.046Z,22.27
2018-06-11T01:20:42.222Z,23.33
2018-06-11T01:23:10.376Z,22.80
2018-06-11T01:25:38.553Z,23.40
2018-06-11T01:28:06.741Z,23.23
2018-06-11T01:30:34.941Z,24.07
2018-06-11T01:33:03.121Z,23.27
2018-06-11T01:35:31.289Z,24.63
2018-06-11T01:37:59.485Z,25.97
2018-06-11T01:40:27.676Z,25.43
2018-06-11T01:42:55.842Z,27.93
2018-06-11T01:45:24.018Z,25.50
2018-06-11T01:47:51.949Z,26.13
2018-06-11T01:50:20.114Z,25.97
2018-06-11T01:52:48.320Z,27.60
2018-06-11T01:55:16.485Z,26.70
2018-06-11T01:57:44.686Z,26.20
2018-06-11T02:00:12.862Z,24.17
2018-06-11T02:02:41.048Z,24.97
2018-06-11T02:05:09.230Z,24.80
2018-06-11T02:07:37.443Z,24.10
2018-06-11T02:10:05.610Z,25.60
2018-06-11T02:12:33.785Z,25.47
2018-06-11T02:15:01.957Z,25.57
2018-06-11T02:17:30.121Z,25.50
2018-06-11T02:19:58.289Z,25.73
2018-06-11T02:22:26.483Z,26.53
2018-06-11T02:24:54.709Z,25.53
2018-06-11T02:27:22.941Z,26.53
2018-06-11T02:29:51.199Z,23.63
2018-06-11T02:32:19.354Z,25.67
2018-06-11T02:34:47.521Z,25.47
2018-06-11T02:37:15.685Z,24.60
2018-06-11T02:39:43.873Z,25.97
2018-06-11T02:42:12.094Z,24.93
2018-06-11T02:44:40.278Z,25.00
2018-06-11T02:47:08.436Z,24.90
2018-06-11T02:49:36.610Z,24.03
2018-06-11T02:52:04.800Z,25.83
2018-06-11T02:54:32.987Z,25.67
2018-06-11T02:57:01.181Z,24.30
2018-06-11T02:59:29.402Z,25.77
2018-06-11T03:01:57.563Z,23.90
2018-06-11T03:04:25.781Z,23.00
2018-06-11T03:06:53.954Z,24.20
2018-06-11T03:09:22.090Z,23.10
2018-06-11T03:11:50.302Z,23.30
2018-06-11T03:14:18.470Z,22.07
2018-06-11T03:16:46.680Z,22.93
2018-06-11T03:19:14.834Z,23.07
2018-06-11T03:21:42.982Z,22.87
2018-06-11T03:24:11.194Z,23.80
2018-06-11T03:26:39.360Z,21.50
2018-06-11T03:29:07.538Z,21.07
2018-06-11T03:31:35.702Z,20.67
2018-06-11T03:34:03.893Z,21.07
2018-06-11T03:36:32.060Z,19.90
2018-06-11T03:39:00.225Z,20.23
2018-06-11T03:41:28.392Z,19.97
2018-06-11T03:43:56.569Z,19.63
2018-06-11T03:46:24.862Z,19.77
2018-06-11T03:48:53.050Z,20.70
2018-06-11T03:51:20.983Z,20.17
2018-06-11T03:53:49.194Z,21.03
2018-06-11T03:56:17.357Z,21.47
2018-06-11T03:58:45.558Z,18.70
2018-06-11T04:01:13.714Z,19.30
2018-06-11T04:03:41.894Z,19.53
2018-06-11T04:06:10.423Z,19.43
2018-06-11T04:08:38.586Z,19.67
2018-06-11T04:11:06.848Z,20.07
2018-06-11T04:13:34.925Z,19.07
2018-06-11T04:16:03.195Z,18.93
2018-06-11T04:18:31.345Z,19.07
2018-06-11T04:20:59.521Z,19.30
2018-06-11T04:23:27.691Z,18.90
2018-06-11T04:25:55.854Z,19.00
2018-06-11T04:28:24.020Z,18.60
2018-06-11T04:30:52.184Z,17.97
2018-06-11T04:33:20.362Z,19.00
2018-06-11T04:35:48.502Z,18.43
2018-06-11T04:38:16.653Z,17.37
2018-06-11T04:40:44.813Z,16.90
2018-06-11T04:43:13.014Z,16.90
2018-06-11T04:45:41.191Z,17.57
2018-06-11T04:48:09.353Z,16.93
2018-06-11T04:50:37.542Z,16.67
2018-06-11T04:53:06.587Z,16.53
2018-06-11T04:55:35.434Z,15.80
2018-06-11T04:58:03.866Z,16.77
2018-06-11T05:00:32.046Z,16.17
2018-06-11T05:03:00.186Z,16.17
2018-06-11T05:05:28.362Z,15.53
2018-06-11T05:07:56.509Z,16.00
2018-06-11T05:10:24.659Z,17.17
2018-06-11T05:12:52.646Z,15.40
2018-06-11T05:15:20.827Z,16.03
2018-06-11T05:17:48.981Z,15.27
2018-06-11T05:20:17.146Z,15.97
2018-06-11T05:22:45.323Z,16.93
2018-06-11T05:25:13.587Z,15.83
2018-06-11T05:27:41.725Z,15.67
2018-06-11T05:30:09.919Z,15.30
2018-06-11T05:32:38.093Z,16.67
2018-06-11T05:35:06.329Z,15.70
2018-06-11T05:37:34.483Z,15.33
2018-06-11T05:40:02.679Z,15.00
2018-06-11T05:42:30.845Z,15.53
2018-06-11T05:44:59.111Z,15.07
2018-06-11T05:47:27.278Z,15.93
2018-06-11T05:49:55.491Z,15.80
2018-06-11T05:52:23.662Z,15.83
2018-06-11T05:54:51.848Z,16.43
2018-06-11T05:57:20.055Z,15.77
2018-06-11T05:59:48.306Z,16.10
2018-06-11T06:02:16.598Z,14.00
2018-06-11T06:04:44.782Z,14.53
2018-06-11T06:07:14.106Z,15.47
2018-06-11T06:09:42.460Z,15.87
2018-06-11T06:12:10.618Z,16.30
2018-06-11T06:14:38.787Z,14.83
2018-06-11T06:17:06.987Z,16.17
2018-06-11T06:19:35.436Z,15.17
2018-06-11T06:22:03.665Z,16.77
2018-06-11T06:24:31.878Z,16.80
2018-06-11T06:27:00.049Z,16.27
2018-06-11T06:29:28.269Z,15.57
2018-06-11T06:31:56.429Z,15.27
2018-06-11T06:34:24.703Z,16.67
2018-06-11T06:36:52.802Z,14.77
2018-06-11T06:39:20.984Z,15.73
2018-06-11T06:41:49.230Z,16.33
2018-06-11T06:44:17.405Z,16.17
2018-06-11T06:46:45.606Z,16.40
2018-06-11T06:49:13.557Z,17.60
2018-06-11T06:51:41.720Z,16.33
2018-06-11T06:54:09.948Z,16.80
2018-06-11T06:56:38.203Z,16.53
2018-06-11T06:59:06.361Z,17.37
2018-06-11T07:01:34.528Z,15.67
2018-06-11T07:04:02.949Z,16.93
2018-06-11T07:06:31.141Z,19.33
2018-06-11T07:08:59.338Z,18.43
2018-06-11T07:11:27.538Z,18.37
2018-06-11T07:13:55.746Z,18.40
2018-06-11T07:16:23.939Z,19.50
2018-06-11T07:18:52.138Z,17.53
2018-06-11T07:21:20.316Z,18.37
2018-06-11T07:23:48.487Z,17.77
2018-06-11T07:26:16.698Z,18.23
2018-06-11T07:28:44.869Z,18.33
2018-06-11T07:31:13.061Z,17.77
2018-06-11T07:33:41.206Z,17.37
2018-06-11T07:36:09.367Z,17.80
2018-06-11T07:38:37.547Z,18.83
2018-06-11T07:41:05.747Z,17.60
2018-06-11T07:43:33.960Z,18.67
2018-06-11T07:46:02.141Z,17.47
2018-06-11T07:48:30.312Z,20.07
2018-06-11T07:50:58.457Z,19.73
2018-06-11T07:53:26.620Z,20.40
2018-06-11T07:55:54.790Z,21.47
2018-06-11T07:58:23.009Z,21.53
2018-06-11T08:00:51.246Z,21.77
2018-06-11T08:03:19.214Z,21.53
2018-06-11T08:05:47.389Z,20.93
2018-06-11T08:08:16.733Z,20.63
2018-06-11T08:10:44.907Z,22.17
2018-06-11T08:13:13.091Z,21.53
2018-06-11T08:15:41.297Z,21.10
2018-06-11T08:18:09.479Z,21.47
2018-06-11T08:20:37.634Z,21.83
2018-06-11T08:23:06.026Z,21.37
2018-06-11T08:25:34.219Z,22.37
2018-06-11T08:28:02.418Z,22.37
2018-06-11T08:30:30.570Z,22.50
2018-06-11T08:32:58.771Z,21.43
2018-06-11T08:35:26.960Z,21.60
2018-06-11T08:37:55.136Z,22.23
2018-06-11T08:40:23.303Z,22.97
2018-06-11T08:42:51.482Z,24.23
2018-06-11T08:45:19.750Z,24.10
2018-06-11T08:47:47.917Z,22.47
2018-06-11T08:50:16.111Z,21.97
2018-06-11T08:52:44.270Z,24.27
2018-06-11T08:55:12.429Z,22.57
2018-06-11T08:57:40.654Z,23.40
2018-06-11T09:00:08.891Z,23.83
2018-06-11T09:02:37.042Z,24.07
2018-06-11T09:05:05.568Z,26.17
2018-06-11T09:07:33.754Z,25.10
2018-06-11T09:10:02.042Z,27.17
2018-06-11T09:12:30.274Z,26.50
2018-06-11T09:14:58.394Z,27.30
2018-06-11T09:17:26.633Z,27.00
2018-06-11T09:19:54.824Z,25.23
2018-06-11T09:22:23.213Z,26.70
2018-06-11T09:24:51.449Z,29.23
2018-06-11T09:27:19.618Z,29.20
2018-06-11T09:29:47.818Z,28.90
2018-06-11T09:32:16.277Z,29.20
2018-06-11T09:34:44.477Z,31.77
2018-06-11T09:37:12.643Z,31.10
2018-06-11T09:39:40.814Z,29.07
2018-06-11T09:42:08.962Z,30.67
2018-06-11T09:44:37.126Z,33.17
2018-06-11T09:47:05.366Z,32.57
2018-06-11T09:49:33.626Z,30.77
2018-06-11T09:52:01.814Z,31.33
2018-06-11T09:54:30.261Z,35.63
2018-06-11T09:56:58.454Z,33.60
2018-06-11T09:59:26.757Z,36.47
2018-06-11T10:01:54.946Z,34.40
2018-06-11T10:04:23.134Z,32.10
2018-06-11T10:06:51.331Z,31.00
2018-06-11T10:09:19.510Z,32.67
2018-06-11T10:11:47.670Z,34.03
2018-06-11T10:14:15.863Z,32.97
2018-06-11T10:16:44.030Z,31.27
2018-06-11T10:19:12.215Z,31.50
2018-06-11T10:21:40.413Z,31.53
2018-06-11T10:24:08.612Z,28.30
2018-06-11T10:26:36.815Z,26.03
2018-06-11T10:29:04.989Z,23.10
2018-06-11T10:31:33.353Z,23.53
2018-06-11T10:34:01.529Z,22.80
2018-06-11T10:36:33.022Z,21.20
2018-06-11T10:39:01.222Z,20.40
2018-06-11T10:41:29.431Z,20.63
2018-06-11T10:43:57.614Z,23.97
2018-06-11T10:46:25.802Z,22.27
2018-06-11T10:48:53.994Z,20.77
2018-06-11T10:51:22.166Z,20.43
2018-06-11T10:53:50.470Z,19.80
2018-06-11T10:56:18.714Z,20.10
2018-06-11T10:58:46.928Z,18.73
2018-06-11T11:01:15.111Z,19.70
2018-06-11T11:03:43.389Z,21.17
2018-06-11T11:06:11.595Z,20.07
2018-06-11T11:08:39.765Z,19.80
2018-06-11T11:11:07.958Z,18.53
2018-06-11T11:13:36.123Z,17.73
2018-06-11T11:16:04.530Z,16.60
2018-06-11T11:18:32.701Z,20.90
2018-06-11T11:21:00.879Z,16.57
2018-06-11T11:23:29.034Z,17.73
2018-06-11T11:25:57.229Z,16.43
2018-06-11T11:28:25.416Z,15.50
2018-06-11T11:30:53.603Z,16.43
2018-06-11T11:33:21.965Z,14.37
2018-06-11T11:35:50.114Z,18.27
2018-06-11T11:38:18.271Z,14.47
2018-06-11T11:40:46.422Z,14.03
2018-06-11T11:43:14.613Z,12.57
2018-06-11T11:45:42.774Z,14.23
2018-06-11T11:48:10.971Z,14.97
2018-06-11T11:50:39.139Z,12.20
2018-06-11T11:53:07.277Z,15.80
2018-06-11T11:55:35.438Z,15.77
2018-06-11T11:58:03.609Z,15.13
2018-06-11T12:00:31.786Z,13.57
2018-06-11T12:03:00.050Z,14.10
2018-06-11T12:05:28.667Z,12.03
2018-06-11T12:07:56.938Z,15.33
2018-06-11T12:10:25.206Z,15.60
2018-06-11T12:12:53.411Z,14.13
2018-06-11T12:15:22.593Z,14.60
2018-06-11T12:17:50.758Z,13.80
2018-06-11T12:20:18.934Z,12.87
2018-06-11T12:22:47.116Z,14.97
2018-06-11T12:25:15.304Z,15.07
2018-06-11T12:27:43.487Z,14.57
2018-06-11T12:30:11.740Z,12.17
2018-06-11T12:32:39.881Z,10.07
2018-06-11T12:35:08.078Z,11.20
2018-06-11T12:37:37.496Z,11.07
2018-06-11T12:40:05.875Z,11.17
2018-06-11T12:42:35.369Z,11.53
2018-06-11T12:45:03.635Z,9.63
2018-06-11T12:47:33.322Z,9.20
2018-06-11T12:50:01.655Z,8.90
2018-06-11T12:52:29.885Z,11.63
2018-06-11T12:54:58.056Z,9.60
2018-06-11T12:57:26.250Z,8.20
2018-06-11T12:59:54.457Z,9.10
2018-06-11T13:02:22.625Z,12.13
2018-06-11T13:04:51.001Z,9.20
2018-06-11T13:07:19.169Z,8.70
2018-06-11T13:09:47.353Z,8.07
2018-06-11T13:12:15.546Z,7.43
2018-06-11T13:14:43.785Z,6.30
2018-06-11T13:17:11.934Z,5.87
2018-06-11T13:19:40.110Z,5.83
2018-06-11T13:22:08.385Z,6.87
2018-06-11T13:24:36.583Z,7.50
2018-06-11T13:27:04.788Z,7.90
2018-06-11T13:29:32.954Z,6.70
2018-06-11T13:32:01.154Z,5.30
2018-06-11T13:34:29.366Z,5.30
2018-06-11T13:36:57.614Z,5.00
2018-06-11T13:39:25.790Z,4.60
2018-06-11T13:41:53.986Z,5.77
2018-06-11T13:44:22.206Z,5.67
2018-06-11T13:46:50.500Z,5.30
2018-06-11T13:49:18.654Z,5.70
2018-06-11T13:51:46.831Z,5.00
2018-06-11T13:54:15.030Z,5.57
2018-06-11T13:56:43.338Z,5.80
2018-06-11T13:59:11.249Z,6.40
2018-06-11T14:01:40.414Z,5.40
2018-06-11T14:04:08.570Z,4.70
2018-06-11T14:06:36.497Z,4.10
2018-06-11T14:09:07.230Z,5.03
2018-06-11T14:11:35.603Z,5.53
2018-06-11T14:14:03.728Z,6.00
2018-06-11T14:16:31.890Z,6.07
2018-06-11T14:19:00.086Z,5.37
2018-06-11T14:21:28.249Z,4.90
2018-06-11T14:23:56.494Z,4.77
2018-06-11T14:26:24.684Z,4.47
2018-06-11T14:28:52.850Z,4.20
2018-06-11T14:31:21.002Z,3.97
2018-06-11T14:33:49.210Z,4.40
2018-06-11T14:36:21.854Z,3.93
2018-06-11T14:38:55.392Z,3.87
2018-06-11T14:41:23.816Z,4.50
2018-06-11T14:43:57.750Z,4.30
2018-06-11T14:46:26.326Z,4.43
2018-06-11T14:48:54.574Z,4.30
2018-06-11T14:51:25.434Z,3.67
2018-06-11T14:53:53.805Z,4.10
2018-06-11T14:56:22.701Z,4.43
2018-06-11T14:58:50.884Z,4.90
2018-06-11T15:01:19.277Z,4.20
2018-06-11T15:03:50.171Z,4.90
2018-06-11T15:06:19.724Z,5.03
2018-06-11T15:08:48.972Z,4.53
2018-06-11T15:11:17.179Z,4.50
2018-06-11T15:13:45.370Z,5.13
2018-06-11T15:16:13.875Z,4.60
2018-06-11T15:18:42.090Z,4.80
2018-06-11T15:21:10.330Z,4.33
2018-06-11T15:23:38.840Z,4.03
2018-06-11T15:26:07.135Z,4.53
2018-06-11T15:28:37.632Z,3.50
2018-06-11T15:31:07.251Z,4.17
2018-06-11T15:33:36.059Z,4.00
2018-06-11T15:36:04.746Z,4.40
2018-06-11T15:38:37.182Z,4.10
2018-06-11T15:41:05.504Z,4.00
2018-06-11T15:43:33.822Z,3.70
2018-06-11T15:46:02.042Z,4.83
2018-06-11T15:48:33.755Z,4.20
2018-06-11T15:51:02.038Z,4.23
2018-06-11T15:53:30.273Z,5.60
2018-06-11T15:55:58.609Z,3.80
2018-06-11T15:58:26.782Z,4.30
2018-06-11T16:00:55.098Z,4.60
2018-06-11T16:03:23.481Z,4.60
2018-06-11T16:05:51.698Z,4.30
2018-06-11T16:08:20.003Z,4.20
2018-06-11T16:10:49.302Z,4.87
2018-06-11T16:13:18.570Z,4.50
2018-06-11T16:15:46.859Z,3.97
2018-06-11T16:18:15.109Z,4.40
2018-06-11T16:20:43.561Z,4.30
2018-06-11T16:23:12.818Z,4.03
2018-06-11T16:25:43.272Z,4.57
2018-06-11T16:28:11.644Z,5.07
2018-06-11T16:30:39.753Z,4.30
2018-06-11T16:33:07.977Z,3.50
2018-06-11T16:35:36.189Z,4.27
2018-06-11T16:38:04.476Z,4.67
2018-06-11T16:40:32.625Z,4.20
2018-06-11T16:43:00.877Z,4.57
2018-06-11T16:45:29.035Z,4.30
2018-06-11T16:47:57.231Z,4.50
2018-06-11T16:50:25.716Z,4.10
2018-06-11T16:52:54.176Z,4.33
2018-06-11T16:55:22.365Z,5.00
2018-06-11T16:57:50.582Z,5.00
2018-06-11T17:00:18.946Z,4.33
2018-06-11T17:02:50.886Z,4.63
2018-06-11T17:05:19.118Z,4.40
2018-06-11T17:07:48.226Z,3.80
2018-06-11T17:10:16.503Z,4.93
2018-06-11T17:12:44.684Z,4.37
2018-06-11T17:15:12.907Z,4.30
2018-06-11T17:17:41.147Z,3.63
2018-06-11T17:20:16.105Z,4.87
2018-06-11T17:22:44.349Z,4.40
2018-06-11T17:25:12.836Z,5.23
2018-06-11T17:27:41.034Z,4.03
2018-06-11T17:37:38.942Z,5.00
2018-06-11T17:42:42.176Z,5.13
2018-06-11T17:47:45.407Z,22.10
2018-06-11T17:52:48.632Z,5.57
2018-06-11T17:57:51.872Z,51.00
2018-06-11T18:02:55.077Z,10.27
2018-06-11T18:07:58.701Z,7.30
2018-06-11T18:13:01.910Z,5.50
2018-06-11T18:18:05.112Z,4.63
2018-06-11T18:23:08.278Z,5.70
2018-06-11T18:28:11.583Z,4.63
2018-06-11T18:33:14.790Z,5.00
2018-06-11T18:38:17.958Z,5.03
2018-06-11T18:43:21.165Z,5.60
2018-06-11T18:48:24.411Z,5.47
2018-06-11T18:53:27.611Z,6.80
2018-06-11T18:58:30.806Z,8.07
2018-06-11T19:03:33.975Z,6.53
2018-06-11T19:08:37.194Z,5.33
2018-06-11T19:13:40.262Z,6.00
2018-06-11T19:18:43.579Z,5.63
2018-06-11T19:23:46.844Z,5.73
2018-06-11T19:28:50.145Z,5.93
2018-06-11T19:33:53.373Z,5.83
2018-06-11T19:38:57.687Z,5.77
2018-06-11T19:44:00.854Z,5.97
2018-06-11T19:49:04.050Z,5.93
2018-06-11T19:54:07.273Z,6.10
2018-06-11T19:59:10.437Z,6.00
2018-06-11T20:04:13.601Z,5.73
2018-06-11T20:09:16.844Z,5.73
2018-06-11T20:14:19.968Z,5.30
2018-06-11T20:19:23.241Z,5.37
2018-06-11T20:24:29.532Z,5.97
2018-06-11T20:29:32.698Z,5.17
2018-06-11T20:34:35.865Z,5.50
2018-06-11T20:39:39.071Z,5.07
2018-06-11T20:44:42.318Z,5.20
2018-06-11T20:49:45.507Z,5.17
2018-06-11T20:54:48.686Z,5.03
2018-06-11T20:59:56.399Z,5.40
2018-06-11T21:04:59.562Z,5.53
2018-06-11T21:10:02.765Z,5.27
2018-06-11T21:15:06.041Z,5.57
2018-06-11T21:20:09.194Z,4.80
2018-06-11T21:25:12.374Z,4.70
2018-06-11T21:30:15.541Z,5.37
2018-06-11T21:35:18.786Z,4.73
2018-06-11T21:40:21.969Z,6.23
2018-06-11T21:45:25.191Z,6.63
2018-06-11T21:50:28.344Z,6.80
2018-06-11T21:55:31.526Z,7.27
2018-06-11T22:00:34.764Z,7.40
2018-06-11T22:05:37.985Z,8.17
2018-06-11T22:10:41.134Z,7.43
2018-06-11T22:15:44.342Z,7.33
2018-06-11T22:20:47.534Z,7.67
2018-06-11T22:25:50.742Z,7.73
2018-06-11T22:30:53.952Z,7.80
2018-06-11T22:35:57.182Z,8.17
2018-06-11T22:41:00.366Z,7.90
2018-06-11T22:46:03.928Z,8.53
2018-06-11T22:51:07.091Z,8.90
2018-06-11T22:56:10.342Z,8.43
2018-06-11T23:01:13.521Z,8.23
2018-06-11T23:06:16.719Z,11.17
2018-06-11T23:11:21.017Z,9.97
2018-06-11T23:16:24.217Z,10.27
2018-06-11T23:21:27.458Z,10.43
2018-06-11T23:26:30.728Z,10.20
2018-06-11T23:31:34.899Z,10.33
2018-06-11T23:36:38.137Z,10.03
2018-06-11T23:41:41.305Z,10.17
2018-06-11T23:46:44.598Z,10.73
2018-06-11T23:51:47.762Z,11.63
2018-06-11T23:56:50.997Z,10.93
